createdAt,value
2023-04-15T00:02:26.507Z,22.52
2023-04-15T00:04:54.329Z,23.73
2023-04-15T00:07:22.090Z,23.38
2023-04-15T00:09:49.748Z,22.63
2023-04-15T00:12:17.465Z,24.60
2023-04-15T00:14:45.100Z,23.27
2023-04-15T00:17:14.237Z,24.35
2023-04-15T00:19:42.554Z,24.55
2023-04-15T00:22:10.245Z,24.17
2023-04-15T00:24:38.019Z,24.92
2023-04-15T00:27:05.798Z,26.15
2023-04-15T00:29:33.640Z,25.08
2023-04-15T00:32:01.386Z,24.70
2023-04-15T00:34:30.427Z,25.85
2023-04-15T00:36:58.316Z,26.13
2023-04-15T00:39:25.962Z,25.58
2023-04-15T00:41:54.348Z,25.27
2023-04-15T00:44:22.005Z,25.17
2023-04-15T00:46:51.939Z,26.05
2023-04-15T00:49:20.043Z,26.02
2023-04-15T00:51:49.068Z,27.23
2023-04-15T00:54:17.209Z,27.15
2023-04-15T00:56:44.984Z,25.02
2023-04-15T00:59:13.050Z,27.45
2023-04-15T01:01:41.726Z,26.85
2023-04-15T01:04:10.683Z,27.42
2023-04-15T01:06:38.380Z,25.60
2023-04-15T01:09:07.427Z,27.00
2023-04-15T01:11:35.823Z,27.25
2023-04-15T01:14:04.242Z,27.48
2023-04-15T01:16:32.567Z,27.35
2023-04-15T01:19:00.715Z,27.73
2023-04-15T01:21:28.419Z,28.02
2023-04-15T01:23:58.326Z,28.20
2023-04-15T01:26:27.490Z,27.45
2023-04-15T01:28:56.282Z,28.48
2023-04-15T01:31:23.944Z,27.63
2023-04-15T01:33:51.955Z,28.55
2023-04-15T01:36:19.660Z,29.23
2023-04-15T01:38:47.604Z,28.25
2023-04-15T01:41:15.596Z,29.58
2023-04-15T01:43:44.638Z,29.38
2023-04-15T01:46:12.732Z,27.27
2023-04-15T01:48:40.457Z,28.50
2023-04-15T01:51:08.232Z,27.73
2023-04-15T01:53:35.889Z,28.33
2023-04-15T01:56:03.707Z,27.58
2023-04-15T01:58:31.449Z,28.23
2023-04-15T02:01:00.653Z,28.90
2023-04-15T02:03:29.150Z,25.73
2023-04-15T02:05:57.560Z,27.45
2023-04-15T02:08:25.250Z,27.73
2023-04-15T02:10:53.217Z,27.92
2023-04-15T02:13:20.863Z,26.63
2023-04-15T02:15:49.537Z,27.88
2023-04-15T02:18:18.545Z,27.10
2023-04-15T02:20:47.051Z,24.85
2023-04-15T02:23:15.054Z,25.42
2023-04-15T02:25:42.758Z,27.35
2023-04-15T02:28:21.355Z,27.27
2023-04-15T02:30:50.881Z,26.17
2023-04-15T02:33:20.322Z,26.27
2023-04-15T02:35:48.003Z,24.58
2023-04-15T02:38:17.838Z,27.10
2023-04-15T02:40:46.131Z,27.02
2023-04-15T02:43:13.740Z,26.13
2023-04-15T02:45:43.442Z,26.00
2023-04-15T02:48:11.494Z,26.70
2023-04-15T02:50:40.802Z,26.63
2023-04-15T02:53:08.556Z,24.60
2023-04-15T02:55:36.359Z,24.23
2023-04-15T02:58:04.204Z,23.58
2023-04-15T03:00:32.125Z,25.40
2023-04-15T03:03:02.249Z,27.17
2023-04-15T03:05:30.558Z,25.50
2023-04-15T03:08:01.009Z,24.40
2023-04-15T03:10:28.747Z,25.13
2023-04-15T03:12:56.476Z,24.40
2023-04-15T03:15:24.344Z,24.30
2023-04-15T03:17:52.066Z,25.02
2023-04-15T03:20:20.355Z,24.73
2023-04-15T03:22:48.066Z,25.90
2023-04-15T03:25:17.267Z,23.02
2023-04-15T03:27:44.927Z,24.95
2023-04-15T03:30:13.390Z,24.73
2023-04-15T03:32:41.116Z,27.20
2023-04-15T03:35:09.607Z,22.73
2023-04-15T03:37:37.317Z,22.90
2023-04-15T03:40:05.493Z,23.17
2023-04-15T03:42:34.501Z,23.73
2023-04-15T03:45:02.145Z,25.05
2023-04-15T03:47:29.852Z,24.30
2023-04-15T03:49:57.606Z,22.77
2023-04-15T03:52:25.581Z,24.55
2023-04-15T03:54:53.192Z,24.42
2023-04-15T03:57:21.063Z,22.33
2023-04-15T03:59:50.013Z,22.42
2023-04-15T04:02:18.081Z,22.58
2023-04-15T04:04:45.830Z,21.10
2023-04-15T04:07:16.937Z,22.13
2023-04-15T04:09:45.707Z,21.67
2023-04-15T04:12:14.812Z,22.00
2023-04-15T04:14:42.433Z,22.65
2023-04-15T04:17:11.698Z,22.23
2023-04-15T04:19:39.406Z,21.60
2023-04-15T04:22:07.344Z,21.88
2023-04-15T04:24:35.036Z,19.35
2023-04-15T04:27:02.998Z,20.95
2023-04-15T04:29:30.713Z,20.30
2023-04-15T04:31:58.382Z,21.88
2023-04-15T04:34:27.452Z,19.75
2023-04-15T04:36:55.119Z,21.15
2023-04-15T04:39:22.834Z,21.23
2023-04-15T04:41:52.123Z,20.23
2023-04-15T04:44:19.816Z,21.17
2023-04-15T04:46:47.515Z,20.15
2023-04-15T04:49:15.425Z,19.48
2023-04-15T04:51:44.716Z,20.38
2023-04-15T04:54:12.435Z,19.02
2023-04-15T04:56:40.333Z,20.52
2023-04-15T04:59:08.080Z,19.98
2023-04-15T05:01:35.854Z,19.60
2023-04-15T05:04:05.177Z,19.85
2023-04-15T05:06:33.147Z,18.85
2023-04-15T05:09:02.784Z,19.85
2023-04-15T05:11:30.936Z,18.92
2023-04-15T05:13:59.718Z,19.23
2023-04-15T05:16:27.391Z,19.67
2023-04-15T05:18:55.118Z,18.40
2023-04-15T05:21:22.906Z,19.10
2023-04-15T05:23:50.745Z,18.80
2023-04-15T05:26:19.795Z,17.67
2023-04-15T05:28:47.860Z,18.63
2023-04-15T05:31:15.532Z,18.05
2023-04-15T05:33:43.490Z,16.92
2023-04-15T05:36:11.542Z,16.88
2023-04-15T05:38:39.185Z,16.65
2023-04-15T05:41:06.917Z,15.73
2023-04-15T05:43:36.046Z,17.30
2023-04-15T05:46:03.921Z,17.55
2023-04-15T05:48:31.765Z,15.82
2023-04-15T05:50:59.565Z,16.10
2023-04-15T05:53:27.205Z,16.13
2023-04-15T05:55:54.935Z,18.27
2023-04-15T05:58:22.586Z,14.77
2023-04-15T06:00:51.865Z,15.98
2023-04-15T06:03:19.680Z,15.88
2023-04-15T06:05:47.439Z,15.48
2023-04-15T06:08:15.032Z,16.15
2023-04-15T06:10:42.751Z,16.58
2023-04-15T06:13:10.378Z,15.40
2023-04-15T06:15:37.977Z,13.85
2023-04-15T06:18:06.943Z,14.82
2023-04-15T06:20:34.669Z,14.68
2023-04-15T06:23:02.297Z,14.63
2023-04-15T06:25:29.967Z,14.20
2023-04-15T06:27:57.636Z,16.15
2023-04-15T06:30:25.307Z,13.70
2023-04-15T06:32:53.245Z,16.50
2023-04-15T06:35:23.089Z,14.55
2023-04-15T06:37:51.570Z,13.60
2023-04-15T06:40:19.254Z,12.93
2023-04-15T06:42:46.937Z,12.98
2023-04-15T06:45:14.627Z,13.13
2023-04-15T06:47:42.385Z,13.88
2023-04-15T06:50:11.488Z,12.85
2023-04-15T06:52:40.874Z,12.18
2023-04-15T06:55:09.980Z,12.75
2023-04-15T06:57:37.618Z,13.10
2023-04-15T07:00:05.919Z,13.40
2023-04-15T07:02:33.686Z,13.75
2023-04-15T07:05:01.701Z,13.45
2023-04-15T07:07:29.408Z,11.25
2023-04-15T07:09:58.522Z,12.07
2023-04-15T07:12:27.863Z,15.77
2023-04-15T07:14:55.802Z,14.80
2023-04-15T07:17:23.534Z,12.60
2023-04-15T07:19:51.402Z,12.30
2023-04-15T07:22:19.064Z,12.32
2023-04-15T07:24:47.215Z,12.65
2023-04-15T07:27:16.342Z,12.75
2023-04-15T07:29:44.022Z,13.23
2023-04-15T07:32:11.769Z,13.20
2023-04-15T07:34:39.448Z,13.52
2023-04-15T07:37:07.298Z,13.02
2023-04-15T07:39:34.992Z,12.88
2023-04-15T07:42:02.785Z,12.48
2023-04-15T07:44:32.283Z,14.00
2023-04-15T07:46:59.928Z,12.95
2023-04-15T07:49:27.577Z,12.73
2023-04-15T07:51:56.509Z,12.73
2023-04-15T07:54:24.176Z,12.73
2023-04-15T07:56:51.758Z,15.65
2023-04-15T07:59:19.432Z,18.50
2023-04-15T08:01:49.029Z,14.27
2023-04-15T08:04:17.124Z,14.25
2023-04-15T08:06:44.922Z,14.55
2023-04-15T08:09:12.694Z,13.70
2023-04-15T08:11:40.681Z,13.57
2023-04-15T08:14:08.398Z,14.00
2023-04-15T08:16:37.006Z,14.15
2023-04-15T08:19:06.166Z,14.02
2023-04-15T08:21:33.920Z,13.65
2023-04-15T08:24:01.729Z,13.98
2023-04-15T08:26:29.517Z,14.75
2023-04-15T08:28:57.488Z,14.70
2023-04-15T08:31:27.849Z,14.27
2023-04-15T08:33:56.902Z,14.32
2023-04-15T08:36:26.991Z,15.32
2023-04-15T08:38:54.641Z,15.95
2023-04-15T08:41:24.408Z,19.35
2023-04-15T08:43:58.405Z,15.80
2023-04-15T08:46:26.640Z,15.48
2023-04-15T08:48:58.244Z,14.63
2023-04-15T08:51:28.153Z,15.55
2023-04-15T08:53:56.265Z,15.38
2023-04-15T08:56:26.799Z,14.48
2023-04-15T09:01:22.222Z,14.48
2023-04-15T09:03:51.007Z,13.63
2023-04-15T09:06:19.199Z,15.32
2023-04-15T09:08:48.316Z,16.85
2023-04-15T09:11:19.424Z,15.45
2023-04-15T09:13:48.193Z,14.18
2023-04-15T09:16:16.042Z,14.13
2023-04-15T09:18:44.057Z,14.68
2023-04-15T09:21:14.130Z,14.35
2023-04-15T09:23:43.281Z,14.40
2023-04-15T09:26:12.374Z,13.65
2023-04-15T09:28:43.883Z,14.57
2023-04-15T09:31:11.964Z,13.88
2023-04-15T09:33:57.090Z,13.75
2023-04-15T09:36:25.099Z,14.50
2023-04-15T09:38:57.196Z,13.60
2023-04-15T09:41:26.356Z,13.15
2023-04-15T09:43:54.146Z,13.35
2023-04-15T09:46:21.831Z,14.13
2023-04-15T09:49:09.096Z,13.80
2023-04-15T09:51:37.688Z,13.80
2023-04-15T09:54:06.025Z,13.63
2023-04-15T09:56:37.710Z,13.60
2023-04-15T09:59:06.455Z,13.40
2023-04-15T10:01:34.498Z,13.50
2023-04-15T10:04:05.313Z,33.53
2023-04-15T10:06:33.730Z,46.47
2023-04-15T10:09:02.137Z,15.30
2023-04-15T10:11:31.806Z,14.80
2023-04-15T10:14:01.963Z,14.33
2023-04-15T10:16:32.760Z,12.88
2023-04-15T10:21:32.120Z,13.15
2023-04-15T10:24:00.279Z,13.97
2023-04-15T10:26:29.270Z,13.90
2023-04-15T10:28:58.420Z,13.98
2023-04-15T10:31:29.577Z,13.50
2023-04-15T10:33:59.045Z,13.50
2023-04-15T10:36:27.443Z,13.57
2023-04-15T10:38:55.117Z,12.55
2023-04-15T10:41:24.139Z,14.02
2023-04-15T10:43:54.238Z,13.63
2023-04-15T10:46:35.262Z,13.55
2023-04-15T10:49:08.762Z,14.52
2023-04-15T10:51:41.552Z,12.57
2023-04-15T10:54:11.236Z,11.90
2023-04-15T10:56:38.922Z,12.10
2023-04-15T10:59:07.474Z,12.55
2023-04-15T11:01:56.472Z,13.57
2023-04-15T11:04:57.517Z,12.55
2023-04-15T11:10:55.144Z,24.58
2023-04-15T11:13:31.631Z,15.00
2023-04-15T11:16:03.518Z,12.73
2023-04-15T11:18:33.566Z,11.55
2023-04-15T11:21:05.332Z,11.75
2023-04-15T11:23:35.740Z,12.13
2023-04-15T11:26:09.161Z,11.30
2023-04-15T11:28:38.946Z,10.70
2023-04-15T11:31:08.772Z,11.85
2023-04-15T11:33:36.410Z,11.85
2023-04-15T11:36:05.897Z,12.05
2023-04-15T11:38:35.653Z,10.55
2023-04-15T11:41:03.472Z,10.53
2023-04-15T11:43:35.272Z,11.43
2023-04-15T11:46:04.206Z,11.80
2023-04-15T11:48:34.931Z,11.45
2023-04-15T11:51:04.111Z,11.23
2023-04-15T11:53:42.150Z,10.35
2023-04-15T11:56:11.597Z,11.02
2023-04-15T11:58:40.034Z,10.82
2023-04-15T12:01:08.229Z,11.00
2023-04-15T12:03:39.935Z,105.45
2023-04-15T12:06:27.697Z,44.15
2023-04-15T12:09:03.087Z,15.98
2023-04-15T12:11:33.604Z,11.73
2023-04-15T12:14:07.758Z,11.40
2023-04-15T12:16:45.749Z,10.65
2023-04-15T12:19:19.378Z,10.30
2023-04-15T12:21:48.898Z,10.25
2023-04-15T12:24:23.054Z,11.70
2023-04-15T12:26:52.876Z,10.80
2023-04-15T12:29:22.185Z,10.53
2023-04-15T12:31:51.728Z,10.57
2023-04-15T12:34:20.984Z,11.02
2023-04-15T12:36:48.684Z,9.60
2023-04-15T12:39:17.764Z,10.13
2023-04-15T12:41:45.476Z,9.73
2023-04-15T12:44:13.293Z,9.38
2023-04-15T12:46:41.487Z,9.23
2023-04-15T12:49:09.415Z,9.90
2023-04-15T12:51:37.172Z,12.63
2023-04-15T12:54:05.586Z,9.55
2023-04-15T12:56:35.034Z,8.82
2023-04-15T12:59:02.699Z,8.95
2023-04-15T13:01:30.478Z,8.15
2023-04-15T13:03:58.425Z,7.60
2023-04-15T13:06:26.153Z,8.38
2023-04-15T13:08:58.493Z,8.43
2023-04-15T13:11:27.100Z,7.43
2023-04-15T13:13:56.895Z,7.47
2023-04-15T13:16:24.857Z,7.37
2023-04-15T13:18:52.539Z,6.75
2023-04-15T13:21:20.821Z,6.60
2023-04-15T13:23:49.848Z,6.53
2023-04-15T13:26:17.575Z,6.05
2023-04-15T13:28:45.406Z,6.28
2023-04-15T13:31:14.557Z,6.93
2023-04-15T13:33:42.293Z,6.10
2023-04-15T13:36:10.270Z,6.35
2023-04-15T13:38:37.886Z,6.10
2023-04-15T13:41:05.537Z,5.85
2023-04-15T13:43:34.288Z,6.28
2023-04-15T13:46:02.091Z,5.15
2023-04-15T13:48:31.506Z,6.03
2023-04-15T13:50:59.213Z,5.97
2023-04-15T13:53:33.866Z,6.28
2023-04-15T13:56:06.899Z,6.10
2023-04-15T13:58:34.690Z,6.60
2023-04-15T14:01:04.670Z,6.78
2023-04-15T14:03:35.897Z,6.35
2023-04-15T14:06:04.030Z,6.88
2023-04-15T14:08:31.907Z,6.40
2023-04-15T14:10:59.653Z,6.38
2023-04-15T14:13:27.243Z,6.78
2023-04-15T14:15:54.898Z,6.95
2023-04-15T14:18:22.671Z,9.25
2023-04-15T14:20:51.699Z,8.70
2023-04-15T14:23:19.405Z,6.57
2023-04-15T14:25:48.256Z,6.68
2023-04-15T14:28:16.358Z,6.18
2023-04-15T14:30:44.155Z,5.82
2023-04-15T14:33:11.991Z,6.60
2023-04-15T14:35:39.890Z,7.05
2023-04-15T14:38:11.101Z,7.18
2023-04-15T14:40:39.334Z,6.35
2023-04-15T14:43:07.048Z,7.05
2023-04-15T14:45:34.936Z,6.85
2023-04-15T14:48:02.719Z,7.38
2023-04-15T14:50:30.631Z,7.28
2023-04-15T14:52:58.442Z,6.53
2023-04-15T14:55:27.536Z,7.20
2023-04-15T14:57:55.244Z,6.88
2023-04-15T15:00:23.049Z,6.68
2023-04-15T15:02:50.776Z,6.35
2023-04-15T15:05:18.628Z,7.00
2023-04-15T15:07:46.348Z,6.85
2023-04-15T15:10:14.193Z,6.63
2023-04-15T15:12:43.272Z,6.45
2023-04-15T15:15:24.945Z,6.40
2023-04-15T15:17:56.214Z,6.93
2023-04-15T15:20:24.726Z,5.90
2023-04-15T15:22:52.743Z,6.65
2023-04-15T15:25:20.478Z,6.13
2023-04-15T15:27:50.149Z,11.13
2023-04-15T15:30:17.809Z,10.07
2023-04-15T15:32:45.748Z,7.18
2023-04-15T15:35:13.438Z,6.28
2023-04-15T15:37:43.284Z,5.38
2023-04-15T15:40:12.136Z,5.60
2023-04-15T15:42:39.832Z,4.88
2023-04-15T15:45:09.780Z,5.22
2023-04-15T15:47:37.483Z,4.30
2023-04-15T15:50:06.303Z,4.35
2023-04-15T15:52:34.166Z,4.65
2023-04-15T15:55:01.961Z,4.78
2023-04-15T15:57:29.584Z,4.40
2023-04-15T16:00:10.215Z,3.95
2023-04-15T16:05:12.232Z,4.00
2023-04-15T16:07:39.848Z,4.30
2023-04-15T16:10:08.665Z,5.30
2023-04-15T16:12:36.452Z,5.30
2023-04-15T16:15:04.294Z,5.10
2023-04-15T16:17:31.957Z,5.22
2023-04-15T16:20:05.277Z,3.90
2023-04-15T16:22:32.989Z,4.43
2023-04-15T16:25:01.005Z,4.40
2023-04-15T16:27:28.984Z,4.32
2023-04-15T16:29:56.727Z,4.20
2023-04-15T16:32:24.522Z,4.95
2023-04-15T16:34:53.541Z,4.82
2023-04-15T16:37:22.699Z,4.78
2023-04-15T16:39:50.380Z,4.75
2023-04-15T16:42:18.112Z,4.22
2023-04-15T16:44:45.722Z,5.03
2023-04-15T16:47:13.315Z,4.63
2023-04-15T16:49:41.052Z,4.88
2023-04-15T16:52:08.795Z,4.70
2023-04-15T16:54:41.193Z,4.20
2023-04-15T16:57:09.092Z,4.50
2023-04-15T16:59:36.900Z,4.65
2023-04-15T17:02:04.689Z,4.35
2023-04-15T17:04:32.643Z,5.07
2023-04-15T17:07:00.467Z,4.88
2023-04-15T17:09:28.147Z,5.40
2023-04-15T17:11:57.541Z,5.05
2023-04-15T17:14:25.635Z,5.30
2023-04-15T17:16:53.307Z,5.78
2023-04-15T17:19:21.094Z,6.82
2023-04-15T17:21:48.750Z,6.82
2023-04-15T17:24:16.456Z,5.32
2023-04-15T17:26:44.148Z,5.60
2023-04-15T17:29:13.418Z,5.22
2023-04-15T17:31:41.113Z,5.88
2023-04-15T17:34:09.529Z,5.22
2023-04-15T17:36:37.844Z,5.50
2023-04-15T17:39:05.961Z,4.90
2023-04-15T17:41:33.885Z,5.05
2023-04-15T17:44:01.561Z,4.95
2023-04-15T17:46:31.827Z,5.65
2023-04-15T17:48:59.523Z,4.70
2023-04-15T17:51:27.997Z,5.57
2023-04-15T17:53:55.910Z,5.78
2023-04-15T17:56:23.737Z,5.75
2023-04-15T17:58:52.636Z,6.20
2023-04-15T18:01:22.202Z,4.93
2023-04-15T18:03:51.562Z,4.90
2023-04-15T18:06:21.264Z,5.20
2023-04-15T18:08:49.117Z,5.78
2023-04-15T18:11:17.540Z,5.63
2023-04-15T18:13:45.566Z,5.68
2023-04-15T18:16:13.231Z,5.82
2023-04-15T18:18:40.912Z,5.40
2023-04-15T18:21:11.625Z,6.32
2023-04-15T18:23:41.147Z,6.43
2023-04-15T18:26:08.851Z,6.35
2023-04-15T18:28:37.662Z,6.82
2023-04-15T18:31:05.586Z,6.50
2023-04-15T18:33:33.455Z,6.80
2023-04-15T18:36:02.443Z,6.40
2023-04-15T18:38:31.775Z,5.65
2023-04-15T18:40:59.700Z,6.10
2023-04-15T18:43:27.373Z,5.22
2023-04-15T18:45:55.147Z,4.72
2023-04-15T18:48:23.053Z,4.90
2023-04-15T18:50:53.858Z,5.32
2023-04-15T18:53:21.655Z,4.70
2023-04-15T18:55:50.837Z,5.22
2023-04-15T18:58:18.486Z,5.32
2023-04-15T19:00:46.230Z,4.75
2023-04-15T19:03:13.961Z,5.18
2023-04-15T19:05:42.349Z,5.68
2023-04-15T19:08:10.083Z,5.30
2023-04-15T19:10:37.761Z,4.50
2023-04-15T19:13:07.552Z,5.03
2023-04-15T19:15:35.243Z,5.87
2023-04-15T19:18:05.157Z,5.20
2023-04-15T19:20:36.636Z,5.25
2023-04-15T19:23:05.794Z,5.00
2023-04-15T19:25:33.502Z,6.80
2023-04-15T19:28:01.192Z,7.60
2023-04-15T19:30:32.296Z,7.28
2023-04-15T19:33:00.080Z,7.88
2023-04-15T19:35:27.825Z,8.00
2023-04-15T19:37:56.016Z,8.65
2023-04-15T19:40:23.754Z,9.90
2023-04-15T19:42:51.431Z,8.90
2023-04-15T19:45:19.314Z,9.00
2023-04-15T19:47:48.534Z,9.68
2023-04-15T19:50:16.911Z,9.85
2023-04-15T19:52:44.599Z,10.05
2023-04-15T19:55:12.284Z,10.70
2023-04-15T19:57:39.890Z,10.43
2023-04-15T20:00:09.419Z,10.43
2023-04-15T20:02:37.275Z,11.48
2023-04-15T20:05:09.720Z,10.80
2023-04-15T20:07:37.530Z,9.50
2023-04-15T20:10:12.286Z,10.38
2023-04-15T20:12:50.811Z,10.30
2023-04-15T20:15:22.491Z,10.55
2023-04-15T20:17:50.676Z,11.07
2023-04-15T20:20:20.280Z,12.35
2023-04-15T20:22:47.947Z,11.48
2023-04-15T20:25:15.860Z,10.55
2023-04-15T20:27:43.561Z,10.40
2023-04-15T20:30:12.010Z,11.30
2023-04-15T20:32:39.787Z,11.00
2023-04-15T20:35:08.164Z,12.18
2023-04-15T20:37:38.378Z,10.57
2023-04-15T20:40:07.122Z,10.85
2023-04-15T20:42:35.419Z,10.82
2023-04-15T20:45:03.363Z,11.68
2023-04-15T20:47:31.302Z,11.10
2023-04-15T20:49:59.118Z,11.50
2023-04-15T20:52:26.733Z,11.38
2023-04-15T20:54:55.813Z,12.77
2023-04-15T20:57:24.543Z,13.15
2023-04-15T20:59:52.217Z,11.73
2023-04-15T21:02:20.004Z,11.38
2023-04-15T21:04:48.132Z,11.73
2023-04-15T21:07:15.796Z,11.00
2023-04-15T21:09:43.755Z,11.57
2023-04-15T21:12:12.879Z,13.48
2023-04-15T21:14:40.882Z,14.23
2023-04-15T21:17:11.197Z,12.52
2023-04-15T21:22:06.815Z,13.27
2023-04-15T21:24:34.512Z,12.52
2023-04-15T21:27:02.364Z,13.90
2023-04-15T21:29:31.464Z,20.70
2023-04-15T21:31:59.145Z,16.00
2023-04-15T21:34:26.807Z,15.52
2023-04-15T21:36:54.502Z,15.65
2023-04-15T21:39:22.113Z,14.90
2023-04-15T21:41:49.838Z,14.07
2023-04-15T21:44:17.664Z,14.95
2023-04-15T21:46:46.723Z,14.32
2023-04-15T21:49:14.460Z,13.52
2023-04-15T21:51:42.097Z,14.93
2023-04-15T21:54:09.978Z,13.73
2023-04-15T21:56:37.870Z,14.00
2023-04-15T21:59:05.704Z,13.18
2023-04-15T22:01:33.596Z,13.27
2023-04-15T22:04:02.947Z,14.05
2023-04-15T22:06:31.610Z,14.70
2023-04-15T22:08:59.285Z,13.00
2023-04-15T22:11:30.830Z,13.68
2023-04-15T22:13:59.178Z,14.02
2023-04-15T22:16:27.258Z,13.13
2023-04-15T22:18:55.302Z,13.57
2023-04-15T22:21:24.561Z,13.90
2023-04-15T22:23:52.868Z,13.05
2023-04-15T22:26:40.615Z,14.13
2023-04-15T22:29:08.310Z,13.68
2023-04-15T22:31:36.216Z,12.98
2023-04-15T22:34:03.917Z,13.07
2023-04-15T22:36:32.966Z,12.27
2023-04-15T22:39:00.722Z,13.27
2023-04-15T22:41:28.417Z,13.45
2023-04-15T22:43:56.092Z,13.80
2023-04-15T22:46:23.771Z,14.48
2023-04-15T22:48:51.487Z,13.48
2023-04-15T22:51:23.344Z,13.95
2023-04-15T22:53:52.322Z,14.82
2023-04-15T22:56:21.027Z,13.27
2023-04-15T22:58:49.648Z,15.32
2023-04-15T23:01:19.214Z,15.73
2023-04-15T23:03:56.898Z,13.80
2023-04-15T23:06:34.800Z,14.27
2023-04-15T23:09:03.851Z,13.45
2023-04-15T23:11:31.666Z,14.80
2023-04-15T23:13:59.436Z,15.93
2023-04-15T23:16:27.988Z,14.15
2023-04-15T23:18:55.820Z,16.35
2023-04-15T23:21:25.469Z,15.82
2023-04-15T23:23:53.775Z,14.73
2023-04-15T23:26:22.752Z,14.90
2023-04-15T23:28:50.414Z,14.02
2023-04-15T23:31:18.211Z,15.32
2023-04-15T23:33:45.871Z,15.55
2023-04-15T23:36:13.539Z,15.40
2023-04-15T23:38:41.204Z,16.23
2023-04-15T23:41:09.899Z,15.73
2023-04-15T23:43:39.010Z,15.55
2023-04-15T23:46:06.594Z,16.00
2023-04-15T23:48:34.243Z,15.13
2023-04-15T23:51:02.507Z,14.30
2023-04-15T23:53:30.846Z,15.80
2023-04-15T23:55:58.545Z,16.55
2023-04-15T23:58:26.217Z,15.02
